Time;durP1;ratioP1;P1;durP2;ratioP2;P2;SDS_P1;SDS_P2;PMS_P1;PMS_P2;Temp;Humidity;BMP_temperature;BMP_pressure;BME280_temperature;BME280_humidity;BME280_pressure;Samples;Min_cycle;Max_cycle;Signal;HPM_P1;HPM_P2
2022/05/06 00:20:38;;;;;;;20.98;10.07;;;17.70;73.40;;;;;;5127872;27;20410;-66
2022/05/06 00:23:05;;;;;;;8.25;6.95;;;17.80;73.20;;;;;;5121037;27;20130;-74
2022/05/06 00:25:32;;;;;;;13.35;6.53;;;17.90;73.40;;;;;;5093689;28;20103;-66
2022/05/06 00:27:58;;;;;;;11.98;6.35;;;17.90;73.40;;;;;;5097672;28;20028;-65
2022/05/06 00:30:25;;;;;;;9.55;6.13;;;17.90;73.30;;;;;;5094471;28;20505;-66
2022/05/06 00:32:51;;;;;;;14.13;6.05;;;18.00;73.30;;;;;;5102973;28;20043;-66
2022/05/06 00:35:18;;;;;;;10.40;6.10;;;18.00;73.20;;;;;;5088576;28;20498;-66
2022/05/06 00:37:44;;;;;;;15.23;6.43;;;18.00;73.00;;;;;;5107635;28;20047;-66
2022/05/06 00:40:13;;;;;;;13.23;5.65;;;18.00;73.30;;;;;;5095074;28;20440;-65
2022/05/06 00:42:40;;;;;;;10.90;6.30;;;18.00;73.10;;;;;;5095879;28;20077;-67
2022/05/06 00:45:07;;;;;;;9.13;6.00;;;18.00;72.90;;;;;;5097747;28;20036;-65
2022/05/06 00:47:34;;;;;;;11.93;6.05;;;18.00;72.80;;;;;;5096720;28;20023;-68
2022/05/06 00:50:01;;;;;;;8.07;5.60;;;18.00;72.70;;;;;;5102307;28;20054;-66
2022/05/06 00:52:29;;;;;;;9.38;6.45;;;18.00;72.70;;;;;;5096555;28;20028;-68
2022/05/06 00:54:56;;;;;;;19.85;6.57;;;18.00;72.80;;;;;;5093913;28;20020;-75
2022/05/06 00:57:23;;;;;;;10.63;7.65;;;18.00;72.80;;;;;;5092730;28;20029;-75
2022/05/06 01:02:55;;;;;;;44.55;9.68;;;18.00;72.80;;;;;;5096449;28;20087;-67
2022/05/06 01:05:25;;;;;;;18.10;7.63;;;17.90;73.00;;;;;;5099092;28;20039;-67
2022/05/06 01:07:53;;;;;;;18.00;7.28;;;18.00;73.10;;;;;;5098474;28;20043;-74
2022/05/06 01:10:21;;;;;;;11.50;7.32;;;18.00;72.90;;;;;;5094775;28;20417;-71
2022/05/06 01:12:48;;;;;;;13.35;6.15;;;18.00;72.80;;;;;;5097281;28;20027;-68
2022/05/06 01:15:21;;;;;;;15.10;5.45;;;17.90;72.70;;;;;;5102411;27;20044;-73
2022/05/06 01:17:48;;;;;;;8.40;4.85;;;17.90;72.60;;;;;;5095954;28;20032;-72
2022/05/06 01:20:16;;;;;;;7.97;5.28;;;17.90;72.50;;;;;;5079772;28;20499;-74
2022/05/06 01:22:48;;;;;;;6.80;4.70;;;17.80;72.50;;;;;;5081440;28;20031;-66
2022/05/06 01:25:16;;;;;;;7.07;4.97;;;17.80;72.50;;;;;;5088866;28;20031;-72
2022/05/06 01:27:55;;;;;;;9.57;5.40;;;17.90;72.70;;;;;;5087552;28;20140;-68
2022/05/06 01:30:37;;;;;;;12.05;6.03;;;17.90;72.70;;;;;;5077890;28;20032;-70
2022/05/06 01:33:15;;;;;;;11.63;6.22;;;17.80;72.60;;;;;;5082320;28;20039;-68
2022/05/06 01:35:49;;;;;;;9.32;6.25;;;17.80;73.20;;;;;;5080341;28;20032;-72
2022/05/06 01:38:36;;;;;;;13.27;7.32;;;17.80;72.70;;;;;;5088240;28;20029;-71
2022/05/06 01:41:04;;;;;;;12.07;8.95;;;17.80;72.90;;;;;;5086245;28;20028;-73
2022/05/06 01:43:39;;;;;;;16.67;9.68;;;17.80;73.00;;;;;;5085126;28;20024;-72
2022/05/06 01:46:06;;;;;;;11.82;9.38;;;17.80;73.00;;;;;;5087283;28;20039;-71
2022/05/06 01:48:36;;;;;;;14.52;10.45;;;17.80;73.00;;;;;;5084513;28;20437;-70
2022/05/06 01:51:03;;;;;;;11.68;9.50;;;17.80;72.90;;;;;;5080348;28;20020;-74
2022/05/06 01:53:29;;;;;;;11.98;8.73;;;17.70;72.90;;;;;;5079376;28;20020;-74
2022/05/06 01:55:56;;;;;;;11.48;8.95;;;17.70;72.90;;;;;;5085436;28;20080;-70
2022/05/06 01:58:22;;;;;;;12.35;8.77;;;17.70;73.00;;;;;;5079407;28;20508;-70
2022/05/06 02:00:49;;;;;;;11.90;8.85;;;17.70;72.90;;;;;;5083874;28;20020;-73
2022/05/06 02:06:00;;;;;;;10.85;8.73;;;17.70;73.10;;;;;;5078043;28;20115;-66
2022/05/06 02:08:27;;;;;;;9.95;8.95;;;17.70;73.20;;;;;;5082377;28;20491;-70
2022/05/06 02:10:53;;;;;;;11.38;9.00;;;17.70;73.10;;;;;;5080449;28;20025;-66
2022/05/06 02:13:20;;;;;;;11.43;7.95;;;17.70;73.10;;;;;;5080727;28;20020;-72
2022/05/06 02:15:46;;;;;;;10.30;7.82;;;17.70;73.20;;;;;;5080678;28;20057;-70
2022/05/06 02:18:13;;;;;;;14.57;7.38;;;17.70;73.40;;;;;;5086031;28;20033;-72
2022/05/06 02:20:39;;;;;;;11.15;6.47;;;17.70;73.60;;;;;;5081361;28;20056;-74
2022/05/06 02:23:06;;;;;;;21.83;7.32;;;17.70;73.90;;;;;;5083987;28;20360;-73
2022/05/06 02:25:32;;;;;;;19.05;7.43;;;17.70;73.70;;;;;;5080265;28;20017;-74
2022/05/06 02:27:59;;;;;;;11.05;6.70;;;17.70;73.60;;;;;;5083656;28;20044;-71
2022/05/06 02:33:13;;;;;;;9.00;7.67;;;17.70;73.80;;;;;;5079728;28;20048;-72
2022/05/06 02:35:41;;;;;;;10.02;6.97;;;17.70;73.70;;;;;;5083148;28;20325;-74
2022/05/06 02:38:09;;;;;;;9.20;7.45;;;17.60;73.60;;;;;;5080440;28;20032;-71
2022/05/06 02:40:37;;;;;;;9.48;6.60;;;17.60;73.60;;;;;;5080367;28;20065;-72
2022/05/06 02:43:05;;;;;;;10.95;7.10;;;17.60;73.60;;;;;;5081694;28;20490;-67
2022/05/06 02:45:32;;;;;;;8.60;7.22;;;17.60;73.60;;;;;;5081423;28;20021;-73
2022/05/06 02:47:59;;;;;;;8.55;6.45;;;17.60;73.60;;;;;;5080992;28;20029;-69
2022/05/06 02:50:26;;;;;;;9.18;7.13;;;17.60;73.60;;;;;;5084237;28;20028;-74
2022/05/06 02:52:53;;;;;;;9.90;6.95;;;17.50;73.50;;;;;;5080070;28;20060;-73
2022/05/06 02:55:20;;;;;;;12.95;7.32;;;17.50;73.40;;;;;;5077987;28;20024;-73
2022/05/06 02:57:47;;;;;;;8.25;6.75;;;17.50;73.50;;;;;;5080342;28;20032;-71
2022/05/06 03:00:14;;;;;;;19.23;7.28;;;17.50;73.50;;;;;;5088508;28;20762;-76
2022/05/06 03:02:41;;;;;;;14.65;7.85;;;17.50;73.60;;;;;;5080593;28;20036;-74
2022/05/06 03:05:08;;;;;;;14.80;7.30;;;17.40;73.60;;;;;;5086653;28;20025;-70
2022/05/06 03:07:35;;;;;;;13.90;8.48;;;17.40;73.80;;;;;;5085410;28;20861;-68
2022/05/06 03:10:03;;;;;;;12.82;9.38;;;17.40;74.30;;;;;;5082057;28;20477;-76
2022/05/06 03:12:31;;;;;;;13.15;9.45;;;17.40;74.40;;;;;;5081607;28;20032;-72
2022/05/06 03:14:58;;;;;;;15.68;10.73;;;17.40;74.10;;;;;;5079687;28;20044;-74
2022/05/06 03:17:25;;;;;;;14.25;10.57;;;17.40;74.00;;;;;;5079978;28;20486;-70
2022/05/06 03:19:51;;;;;;;17.48;11.63;;;17.40;74.00;;;;;;5082583;28;20093;-73
2022/05/06 03:22:18;;;;;;;18.20;12.63;;;17.40;74.10;;;;;;5081794;28;20088;-70
2022/05/06 03:24:45;;;;;;;17.27;12.77;;;17.30;74.10;;;;;;5081436;28;20107;-72
2022/05/06 03:29:57;;;;;;;12.07;10.77;;;17.40;74.20;;;;;;5081790;28;20043;-70
2022/05/06 03:32:24;;;;;;;13.85;9.88;;;17.30;74.10;;;;;;5084619;28;20073;-73
2022/05/06 03:34:51;;;;;;;11.98;9.50;;;17.30;74.10;;;;;;5079519;28;20340;-67
2022/05/06 03:37:18;;;;;;;15.27;9.43;;;17.20;74.00;;;;;;5072072;28;20024;-66
2022/05/06 03:39:45;;;;;;;12.48;8.30;;;17.30;74.20;;;;;;5085790;28;20514;-66
2022/05/06 03:42:13;;;;;;;21.02;9.93;;;17.30;74.30;;;;;;5078007;28;20035;-68
2022/05/06 03:44:40;;;;;;;10.27;7.80;;;17.20;74.30;;;;;;5081102;28;20123;-69
2022/05/06 03:47:07;;;;;;;13.85;8.13;;;17.30;74.30;;;;;;5084472;28;20024;-67
2022/05/06 03:49:33;;;;;;;11.10;8.00;;;17.30;74.50;;;;;;5079130;28;20580;-67
2022/05/06 03:52:00;;;;;;;12.23;8.35;;;17.30;74.60;;;;;;5084048;28;20558;-67
2022/05/06 03:54:27;;;;;;;33.78;9.52;;;17.30;75.30;;;;;;5080933;28;20074;-66
2022/05/06 03:56:53;;;;;;;16.33;8.82;;;17.30;74.70;;;;;;5082506;28;20066;-74
2022/05/06 03:59:20;;;;;;;13.98;8.38;;;17.30;74.40;;;;;;5084360;28;20081;-71
2022/05/06 04:01:46;;;;;;;17.90;10.85;;;17.20;75.40;;;;;;5085390;28;20020;-74
2022/05/06 04:04:13;;;;;;;22.95;12.38;;;17.20;76.00;;;;;;5080907;28;20020;-72
2022/05/06 04:06:40;;;;;;;17.42;10.27;;;17.30;76.10;;;;;;5087412;28;20035;-77
2022/05/06 04:09:06;;;;;;;15.18;9.20;;;17.30;75.80;;;;;;5078741;28;20060;-73
2022/05/06 04:11:41;;;;;;;9.30;7.00;;;17.30;75.60;;;;;;5086580;28;20054;-73
2022/05/06 04:14:09;;;;;;;10.93;7.10;;;17.20;75.40;;;;;;5076047;28;20474;-72
2022/05/06 04:16:36;;;;;;;10.75;7.85;;;17.30;75.50;;;;;;5080961;28;20097;-72
2022/05/06 04:19:02;;;;;;;24.35;12.15;;;17.20;75.50;;;;;;5078079;28;20048;-74
2022/05/06 04:24:13;;;;;;;13.32;9.52;;;17.20;75.70;;;;;;5079376;28;20036;-70
2022/05/06 04:26:40;;;;;;;16.15;7.65;;;17.20;75.70;;;;;;5082326;28;20108;-73
2022/05/06 04:29:06;;;;;;;10.32;7.25;;;17.20;75.50;;;;;;5081264;28;20047;-69
2022/05/06 04:31:36;;;;;;;11.52;6.38;;;17.20;75.70;;;;;;5080830;28;20031;-70
2022/05/06 04:34:02;;;;;;;11.50;5.80;;;17.20;75.90;;;;;;5081362;28;20462;-76
2022/05/06 04:36:29;;;;;;;31.23;13.05;;;17.20;76.00;;;;;;5085173;28;20012;-68
2022/05/06 04:38:55;;;;;;;17.95;11.18;;;17.20;76.00;;;;;;5079689;28;20017;-74
2022/05/06 04:41:22;;;;;;;15.93;8.77;;;17.20;76.10;;;;;;5080562;28;20463;-71
2022/05/06 04:43:48;;;;;;;11.13;6.68;;;17.20;76.00;;;;;;5079342;28;20121;-72
2022/05/06 04:46:15;;;;;;;11.45;6.53;;;17.20;76.00;;;;;;5086698;28;20020;-71
2022/05/06 04:48:41;;;;;;;15.23;5.80;;;17.20;76.00;;;;;;5080017;28;20028;-73
2022/05/06 04:51:07;;;;;;;11.98;6.25;;;17.20;76.90;;;;;;5081327;28;20479;-72
2022/05/06 04:53:34;;;;;;;10.65;5.97;;;17.10;76.30;;;;;;5081133;28;20026;-69
2022/05/06 04:56:00;;;;;;;12.35;6.75;;;17.20;76.40;;;;;;5078836;28;20626;-70
2022/05/06 04:58:28;;;;;;;18.80;9.90;;;17.20;76.40;;;;;;5084343;28;20409;-69
2022/05/06 05:00:55;;;;;;;11.63;9.32;;;17.20;76.30;;;;;;5085778;28;20024;-69
2022/05/06 05:03:22;;;;;;;17.17;10.60;;;17.20;76.20;;;;;;5083143;28;20028;-71
2022/05/06 05:05:48;;;;;;;14.48;10.65;;;17.20;76.10;;;;;;5081960;28;20025;-69
2022/05/06 05:08:15;;;;;;;19.00;10.98;;;17.20;76.10;;;;;;5090128;28;20028;-71
2022/05/06 05:10:42;;;;;;;23.45;10.60;;;17.10;76.00;;;;;;5081352;28;20035;-69
2022/05/06 05:13:08;;;;;;;19.67;9.80;;;17.20;76.50;;;;;;5085497;28;20012;-71
2022/05/06 05:15:34;;;;;;;14.90;8.50;;;17.10;77.00;;;;;;5080787;28;20019;-70
2022/05/06 05:18:01;;;;;;;17.40;9.38;;;17.20;77.00;;;;;;5080945;28;20741;-69
2022/05/06 05:20:27;;;;;;;13.38;8.15;;;17.20;76.70;;;;;;5081914;28;20048;-69
2022/05/06 05:22:54;;;;;;;11.60;7.80;;;17.10;76.90;;;;;;5082949;28;20024;-69
2022/05/06 05:25:20;;;;;;;8.35;6.95;;;17.10;77.10;;;;;;5084972;28;21389;-70
2022/05/06 05:27:47;;;;;;;12.85;7.40;;;17.10;77.20;;;;;;5086107;28;20489;-70
2022/05/06 05:30:13;;;;;;;11.00;6.95;;;17.10;77.30;;;;;;5081544;28;20032;-71
2022/05/06 05:32:40;;;;;;;9.32;5.78;;;17.20;77.40;;;;;;5079172;28;20024;-72
2022/05/06 05:35:08;;;;;;;11.82;6.00;;;17.20;77.30;;;;;;5085992;28;20111;-72
2022/05/06 05:37:35;;;;;;;13.35;5.28;;;17.20;77.40;;;;;;5086650;28;20027;-72
2022/05/06 05:40:02;;;;;;;10.00;5.93;;;17.20;77.80;;;;;;5076763;28;20036;-72
2022/05/06 05:42:28;;;;;;;6.38;5.43;;;17.20;78.10;;;;;;5085828;28;20043;-72
2022/05/06 05:50:27;;;;;;;5.40;3.93;;;17.20;79.00;;;;;;5084887;28;20038;-72
2022/05/06 05:52:54;;;;;;;6.45;4.03;;;17.30;79.30;;;;;;5083252;28;20016;-73
2022/05/06 05:55:22;;;;;;;6.97;4.35;;;17.30;79.70;;;;;;5077260;28;20361;-72
2022/05/06 05:58:10;;;;;;;7.68;4.60;;;17.30;80.00;;;;;;5081928;28;20021;-71
2022/05/06 06:00:37;;;;;;;7.28;5.35;;;17.30;80.30;;;;;;5081645;28;20060;-72
2022/05/06 06:03:43;;;;;;;9.40;4.82;;;17.40;80.60;;;;;;5085094;28;20024;-71
2022/05/06 06:06:49;;;;;;;9.80;3.22;;;17.40;80.80;;;;;;5079372;28;20039;-72
2022/05/06 06:09:35;;;;;;;;;;;17.40;80.90;;;;;;5085005;28;20086;-71
2022/05/06 06:12:41;;;;;;;6.90;2.60;;;17.40;80.90;;;;;;5082567;28;20044;-73
2022/05/06 06:15:47;;;;;;;10.63;2.97;;;17.40;81.30;;;;;;5077454;28;20025;-71
2022/05/06 06:18:55;;;;;;;8.45;2.33;;;17.50;81.90;;;;;;5075950;28;20031;-72
2022/05/06 06:22:01;;;;;;;6.88;2.05;;;17.50;82.30;;;;;;5084136;28;20433;-69
2022/05/06 06:25:07;;;;;;;6.30;2.90;;;17.60;82.70;;;;;;5082458;28;20493;-73
2022/05/06 06:28:13;;;;;;;6.65;2.22;;;17.60;82.70;;;;;;5081350;28;20020;-73
2022/05/06 06:31:19;;;;;;;4.82;2.35;;;17.60;82.60;;;;;;5085032;28;20055;-74
2022/05/06 06:34:25;;;;;;;4.97;1.90;;;17.60;82.50;;;;;;5079730;28;20067;-74
2022/05/06 06:37:32;;;;;;;7.57;2.17;;;17.60;82.40;;;;;;5076659;28;21014;-75
2022/05/06 06:40:38;;;;;;;17.92;2.65;;;17.60;82.40;;;;;;5083879;28;20032;-74
2022/05/06 06:43:44;;;;;;;7.40;2.03;;;17.60;82.70;;;;;;5079005;28;20036;-74
2022/05/06 06:46:51;;;;;;;10.48;2.42;;;17.60;82.70;;;;;;5082034;28;20499;-72
2022/05/06 06:49:57;;;;;;;6.65;1.67;;;17.70;82.80;;;;;;5079262;28;20032;-71
2022/05/06 06:53:03;;;;;;;6.65;2.47;;;17.70;83.00;;;;;;5086108;28;20375;-70
2022/05/06 06:56:09;;;;;;;4.70;2.22;;;17.70;83.10;;;;;;5085618;28;20070;-73
2022/05/06 06:59:15;;;;;;;4.35;2.47;;;17.70;83.10;;;;;;5081395;28;20028;-74
2022/05/06 07:02:21;;;;;;;7.28;2.42;;;17.80;83.20;;;;;;5082237;28;20032;-70
2022/05/06 07:05:27;;;;;;;3.78;2.28;;;17.80;83.40;;;;;;5079377;28;20028;-71
2022/05/06 07:11:58;;;;;;;3.85;2.53;;;17.80;83.50;;;;;;5077932;28;20043;-70
2022/05/06 07:15:04;;;;;;;3.80;2.50;;;17.80;83.50;;;;;;5074953;28;20016;-70
2022/05/06 07:18:10;;;;;;;4.45;2.63;;;17.80;83.50;;;;;;5083557;28;20020;-73
2022/05/06 07:21:16;;;;;;;13.18;3.35;;;17.90;83.70;;;;;;5082253;28;20032;-70
2022/05/06 07:24:24;;;;;;;9.90;4.53;;;17.90;83.70;;;;;;5078984;28;20052;-71
2022/05/06 07:27:30;;;;;;;6.88;3.75;;;17.90;83.70;;;;;;5080662;28;20059;-71
2022/05/06 07:30:36;;;;;;;9.07;3.35;;;17.90;83.80;;;;;;5077276;28;20408;-72
2022/05/06 07:33:42;;;;;;;7.15;3.50;;;18.00;84.10;;;;;;5077252;28;20073;-73
2022/05/06 07:36:48;;;;;;;15.60;3.83;;;18.00;83.90;;;;;;5079253;28;20024;-73
2022/05/06 07:39:54;;;;;;;5.40;3.58;;;18.00;83.80;;;;;;5082550;28;20367;-72
2022/05/06 07:43:00;;;;;;;13.20;3.67;;;18.00;84.00;;;;;;5079413;28;20071;-70
2022/05/06 07:46:09;;;;;;;9.63;4.25;;;18.00;84.00;;;;;;5079025;28;20024;-71
2022/05/06 07:49:15;;;;;;;10.80;4.82;;;18.10;84.00;;;;;;5080880;28;21132;-70
2022/05/06 07:52:22;;;;;;;6.57;4.05;;;18.10;84.00;;;;;;5082657;28;20107;-72
2022/05/06 07:55:28;;;;;;;9.55;4.97;;;18.20;84.20;;;;;;5077251;28;20387;-74
2022/05/06 07:58:34;;;;;;;6.85;5.50;;;18.20;84.20;;;;;;5082834;28;20127;-72
2022/05/06 08:05:04;;;;;;;6.80;5.40;;;18.30;84.30;;;;;;5079595;28;20489;-73
2022/05/06 08:08:10;;;;;;;8.07;4.55;;;18.30;84.40;;;;;;5077389;28;20097;-74
2022/05/06 08:11:17;;;;;;;8.10;4.30;;;18.40;84.40;;;;;;5079706;28;20124;-71
2022/05/06 08:14:23;;;;;;;10.70;5.25;;;18.40;84.40;;;;;;5080331;28;20025;-73
2022/05/06 08:17:29;;;;;;;6.32;4.65;;;18.50;84.40;;;;;;5077097;28;20056;-73
2022/05/06 08:20:35;;;;;;;8.05;4.80;;;18.50;84.30;;;;;;5080861;28;20044;-71
2022/05/06 08:23:42;;;;;;;8.07;5.13;;;18.50;84.10;;;;;;5082940;28;20021;-73
2022/05/06 08:26:48;;;;;;;7.65;4.68;;;18.50;83.90;;;;;;5078889;28;20035;-74
2022/05/06 08:29:54;;;;;;;11.20;5.05;;;18.50;83.80;;;;;;5081563;28;20062;-70
2022/05/06 08:33:00;;;;;;;11.05;5.28;;;18.50;83.70;;;;;;5083077;28;20091;-73
2022/05/06 08:36:06;;;;;;;7.20;4.47;;;18.60;83.60;;;;;;5087022;28;20380;-71
2022/05/06 08:39:12;;;;;;;15.27;5.78;;;18.60;83.70;;;;;;5086251;28;20035;-71
2022/05/06 08:42:18;;;;;;;19.85;5.35;;;18.60;83.00;;;;;;5083851;28;20031;-71
2022/05/06 08:52:13;;;;;;;11.80;5.63;;;18.60;83.10;;;;;;5082903;28;20587;-70
2022/05/06 08:55:19;;;;;;;18.52;6.20;;;18.60;83.20;;;;;;5080267;28;20058;-71
2022/05/06 08:58:25;;;;;;;9.18;5.60;;;18.60;83.40;;;;;;5083721;28;20028;-72
2022/05/06 09:01:31;;;;;;;17.05;5.72;;;18.60;83.60;;;;;;5082818;28;20108;-70
2022/05/06 09:04:37;;;;;;;10.35;5.65;;;18.60;83.80;;;;;;5083014;28;20992;-71
2022/05/06 09:07:52;;;;;;;10.45;4.65;;;18.60;83.90;;;;;;5089450;28;20322;-70
2022/05/06 09:10:59;;;;;;;17.60;6.07;;;18.60;83.90;;;;;;5077289;28;20045;-74
2022/05/06 09:13:51;;;;;;;12.02;5.10;;;18.60;83.70;;;;;;5085377;28;20032;-72
2022/05/06 09:17:06;;;;;;;11.57;6.32;;;18.60;83.90;;;;;;5080898;28;20039;-73
2022/05/06 09:20:12;;;;;;;10.48;5.97;;;18.60;84.00;;;;;;5085297;28;20928;-71
2022/05/06 09:23:19;;;;;;;9.68;6.35;;;18.60;84.20;;;;;;5084497;28;20111;-70
2022/05/06 09:26:26;;;;;;;12.15;8.80;;;18.60;84.40;;;;;;5083302;28;20073;-71
2022/05/06 09:29:33;;;;;;;10.20;5.45;;;18.50;84.40;;;;;;5081222;28;20040;-73
2022/05/06 09:32:47;;;;;;;11.88;6.47;;;18.50;84.50;;;;;;5081469;28;20035;-72
2022/05/06 09:35:54;;;;;;;12.75;6.78;;;18.50;84.70;;;;;;5083313;28;20024;-71
2022/05/06 09:38:39;;;;;;;;;;;18.50;84.70;;;;;;5083379;28;20030;-70
2022/05/06 09:42:01;;;;;;;24.27;14.50;;;18.50;84.80;;;;;;5083359;28;19908;-70
2022/05/06 09:45:07;;;;;;;28.33;14.35;;;18.50;84.90;;;;;;5084941;28;20374;-71
2022/05/06 09:48:16;;;;;;;33.15;14.13;;;18.50;85.50;;;;;;5081205;28;20028;-72
2022/05/06 09:51:26;;;;;;;18.52;11.63;;;18.50;85.90;;;;;;5081252;28;20032;-71
2022/05/06 09:54:32;;;;;;;20.85;9.68;;;18.50;86.10;;;;;;5079503;28;20028;-73
2022/05/06 09:57:38;;;;;;;15.35;9.38;;;18.50;86.40;;;;;;5081290;28;20047;-72
2022/05/06 10:00:47;;;;;;;23.55;8.73;;;18.50;87.30;;;;;;5085070;28;20021;-72
2022/05/06 10:03:53;;;;;;;24.05;8.65;;;18.50;87.40;;;;;;5083600;28;20027;-73
2022/05/06 10:07:03;;;;;;;17.17;8.65;;;18.50;88.30;;;;;;5083948;28;20031;-73
2022/05/06 10:10:17;;;;;;;12.32;7.30;;;18.50;89.10;;;;;;5080420;28;20042;-73
2022/05/06 10:13:23;;;;;;;16.60;6.25;;;18.50;89.10;;;;;;5081498;28;20069;-72
2022/05/06 10:16:29;;;;;;;11.30;5.75;;;18.50;88.80;;;;;;5077002;28;20035;-72
2022/05/06 10:19:45;;;;;;;9.13;5.40;;;18.50;88.60;;;;;;5083485;28;20044;-72
2022/05/06 10:22:49;;;;;;;14.45;6.38;;;18.50;88.70;;;;;;5083858;28;20390;-71
2022/05/06 10:26:08;;;;;;;17.67;6.65;;;18.50;88.70;;;;;;5081699;28;20016;-72
2022/05/06 10:34:54;;;;;;;6.53;3.85;;;18.50;89.10;;;;;;5080643;28;20579;-72
2022/05/06 10:38:00;;;;;;;6.93;3.65;;;18.50;89.10;;;;;;5083525;28;20020;-72
2022/05/06 10:41:12;;;;;;;4.63;3.45;;;18.40;89.00;;;;;;5080172;28;20540;-72
2022/05/06 10:43:42;;;;;;;6.32;2.63;;;18.50;88.90;;;;;;5084270;28;20118;-73
2022/05/06 10:46:57;;;;;;;4.82;2.47;;;18.40;88.80;;;;;;5083546;28;20021;-71
2022/05/06 10:49:35;;;;;;;7.15;3.15;;;18.40;88.90;;;;;;5083465;28;20035;-73
2022/05/06 10:52:18;;;;;;;4.32;2.67;;;18.40;88.90;;;;;;5081358;28;20014;-69
2022/05/06 10:55:30;;;;;;;3.35;2.72;;;18.40;88.70;;;;;;5075473;28;20028;-72
2022/05/06 10:58:36;;;;;;;4.57;2.67;;;18.40;88.60;;;;;;5083542;28;20050;-70
2022/05/06 11:01:45;;;;;;;4.50;3.20;;;18.40;88.30;;;;;;5082296;28;20016;-73
2022/05/06 11:04:51;;;;;;;4.15;2.60;;;18.40;88.20;;;;;;5084464;28;20036;-73
2022/05/06 11:07:58;;;;;;;10.65;3.63;;;18.40;88.10;;;;;;5079590;28;20043;-70
2022/05/06 11:11:05;;;;;;;8.68;3.05;;;18.30;87.90;;;;;;5074364;28;20041;-71
2022/05/06 11:14:11;;;;;;;6.22;3.33;;;18.40;87.90;;;;;;5079641;28;20027;-68
2022/05/06 11:17:35;;;;;;;10.35;3.60;;;18.30;87.80;;;;;;5084756;28;20860;-72
2022/05/06 11:20:41;;;;;;;4.65;2.97;;;18.40;87.80;;;;;;5076867;28;20098;-69
2022/05/06 11:23:47;;;;;;;5.88;3.03;;;18.40;87.90;;;;;;5082655;28;20024;-72
2022/05/06 11:26:53;;;;;;;5.63;2.60;;;18.40;87.90;;;;;;5083340;28;20474;-71
2022/05/06 11:30:14;;;;;;;7.82;3.03;;;18.40;88.10;;;;;;5079414;28;20060;-69
2022/05/06 11:33:20;;;;;;;5.20;2.65;;;18.40;88.10;;;;;;5060827;28;20513;-71
2022/05/06 11:36:26;;;;;;;5.65;2.50;;;18.40;88.20;;;;;;5084375;28;20069;-72
2022/05/06 11:39:32;;;;;;;5.05;2.88;;;18.40;88.20;;;;;;5080261;28;20017;-72
2022/05/06 11:42:41;;;;;;;6.88;4.40;;;18.40;88.30;;;;;;5083358;28;20012;-71
2022/05/06 11:48:07;;;;;;;9.02;4.47;;;18.40;88.60;;;;;;5079450;28;20039;-71
2022/05/06 11:50:41;;;;;;;4.80;3.85;;;18.50;88.60;;;;;;5081628;28;20035;-73
2022/05/06 11:53:13;;;;;;;11.37;4.23;;;18.50;88.70;;;;;;5081196;28;20009;-72
2022/05/06 11:55:48;;;;;;;8.02;3.80;;;18.50;88.70;;;;;;5081154;28;20311;-71
2022/05/06 11:58:17;;;;;;;8.05;4.07;;;18.50;88.80;;;;;;5080252;28;20454;-72
2022/05/06 12:00:45;;;;;;;7.82;4.47;;;18.50;88.80;;;;;;5082326;28;20032;-69
2022/05/06 12:03:12;;;;;;;6.97;4.05;;;18.50;88.70;;;;;;5081143;28;20013;-72
2022/05/06 12:05:40;;;;;;;7.45;3.67;;;18.50;88.60;;;;;;5082248;28;20017;-72
2022/05/06 12:08:07;;;;;;;6.50;4.38;;;18.50;88.50;;;;;;5080745;28;20028;-71
2022/05/06 12:10:37;;;;;;;9.85;4.60;;;18.50;88.50;;;;;;5080019;28;20099;-71
2022/05/06 12:13:08;;;;;;;7.22;4.68;;;18.50;88.30;;;;;;5080471;28;20380;-70
2022/05/06 12:15:38;;;;;;;10.48;4.60;;;18.50;88.20;;;;;;5079361;28;20021;-72
2022/05/06 12:18:09;;;;;;;6.15;4.43;;;18.40;88.20;;;;;;5078390;28;20127;-71
2022/05/06 12:20:41;;;;;;;5.82;3.65;;;18.40;88.10;;;;;;5083047;28;20046;-73
2022/05/06 12:23:10;;;;;;;7.32;3.50;;;18.40;88.10;;;;;;5079185;28;20539;-72
2022/05/06 12:25:41;;;;;;;8.52;4.03;;;18.40;88.10;;;;;;5080325;28;20132;-71
2022/05/06 12:28:10;;;;;;;7.85;3.65;;;18.40;88.10;;;;;;5079962;28;20051;-71
2022/05/06 12:30:38;;;;;;;5.50;4.63;;;18.40;88.10;;;;;;5082536;28;20521;-73
2022/05/06 12:33:07;;;;;;;6.38;4.90;;;18.40;88.20;;;;;;5083658;28;20031;-72
2022/05/06 12:35:58;;;;;;;7.55;3.95;;;18.40;88.10;;;;;;5095775;28;20417;-72
2022/05/06 12:38:26;;;;;;;10.45;5.13;;;18.40;88.10;;;;;;5069483;28;20392;-72
2022/05/06 12:40:53;;;;;;;5.47;4.25;;;18.40;88.10;;;;;;5080787;28;20013;-73
2022/05/06 12:43:27;;;;;;;6.28;4.60;;;18.30;88.00;;;;;;5076926;28;20016;-72
2022/05/06 12:46:00;;;;;;;9.73;5.90;;;18.40;88.00;;;;;;5080693;28;20020;-73
2022/05/06 12:51:11;;;;;;;7.97;4.38;;;18.30;87.90;;;;;;5082308;28;20078;-73
2022/05/06 12:53:37;;;;;;;5.18;2.42;;;18.30;87.90;;;;;;5080622;28;20024;-72
2022/05/06 12:56:05;;;;;;;4.07;1.92;;;18.30;87.90;;;;;;5079783;28;21043;-72
2022/05/06 12:58:32;;;;;;;4.40;1.67;;;18.30;87.90;;;;;;5080290;28;20451;-73
2022/05/06 13:00:59;;;;;;;2.90;1.30;;;18.20;87.90;;;;;;5083313;28;20021;-72
2022/05/06 13:03:29;;;;;;;3.05;1.13;;;18.30;87.90;;;;;;5079333;28;20035;-72
2022/05/06 13:05:55;;;;;;;4.45;2.13;;;18.30;88.10;;;;;;5084537;28;20467;-72
2022/05/06 13:08:24;;;;;;;4.20;1.42;;;18.30;88.10;;;;;;5081775;28;20021;-72
2022/05/06 13:10:51;;;;;;;3.03;1.20;;;18.30;88.20;;;;;;5079301;28;20056;-70
2022/05/06 13:13:17;;;;;;;4.50;1.08;;;18.30;88.30;;;;;;5082791;28;20067;-72
2022/05/06 13:15:44;;;;;;;5.28;1.60;;;18.40;88.40;;;;;;5085399;28;20058;-69
2022/05/06 13:18:11;;;;;;;3.60;1.58;;;18.40;88.40;;;;;;5081279;28;20031;-71
2022/05/06 13:20:37;;;;;;;5.95;1.75;;;18.40;88.40;;;;;;5084093;28;20528;-74
2022/05/06 13:23:04;;;;;;;4.50;1.45;;;18.40;88.50;;;;;;5087844;28;20024;-71
2022/05/06 13:25:31;;;;;;;2.35;1.20;;;18.40;88.40;;;;;;5081633;28;20020;-69
2022/05/06 13:27:57;;;;;;;3.92;1.35;;;18.40;88.40;;;;;;5079175;28;20467;-73
2022/05/06 13:30:24;;;;;;;4.97;1.75;;;18.40;88.30;;;;;;5084201;28;20071;-69
2022/05/06 13:32:50;;;;;;;3.70;0.82;;;18.40;88.30;;;;;;5082962;28;20367;-72
2022/05/06 13:35:17;;;;;;;5.13;1.15;;;18.30;88.40;;;;;;5085137;28;20027;-72
2022/05/06 13:37:43;;;;;;;2.15;0.60;;;18.30;88.60;;;;;;5085251;28;20023;-72
2022/05/06 13:40:10;;;;;;;3.00;0.80;;;18.30;88.70;;;;;;5086112;28;20095;-72
2022/05/06 13:42:37;;;;;;;5.93;1.20;;;18.30;88.80;;;;;;5081455;28;20047;-70
2022/05/06 13:45:04;;;;;;;2.97;0.90;;;18.30;88.80;;;;;;5082577;28;20498;-69
2022/05/06 13:47:30;;;;;;;2.50;0.70;;;18.30;88.80;;;;;;5085694;28;20023;-69
2022/05/06 13:49:57;;;;;;;1.63;0.77;;;18.30;88.90;;;;;;5081721;28;20479;-69
2022/05/06 13:52:25;;;;;;;4.90;1.25;;;18.30;89.00;;;;;;5085719;28;20016;-72
2022/05/06 13:54:51;;;;;;;1.95;0.65;;;18.30;89.00;;;;;;5086671;28;20016;-69
2022/05/06 14:00:04;;;;;;;7.70;1.25;;;18.20;88.80;;;;;;5085078;28;20027;-71
2022/05/06 14:02:30;;;;;;;4.05;0.95;;;18.20;88.70;;;;;;5081710;28;20414;-69
2022/05/06 14:04:57;;;;;;;2.65;0.80;;;18.20;88.70;;;;;;5082427;28;20039;-72
2022/05/06 14:07:23;;;;;;;1.92;1.08;;;18.20;88.80;;;;;;5086816;28;20468;-71
2022/05/06 14:09:50;;;;;;;3.05;1.00;;;18.10;88.70;;;;;;5082998;28;20479;-72
2022/05/06 14:12:16;;;;;;;1.65;0.85;;;18.10;88.60;;;;;;5083155;28;20417;-71
2022/05/06 14:14:43;;;;;;;1.95;0.75;;;18.10;88.40;;;;;;5085004;28;20029;-69
2022/05/06 14:17:09;;;;;;;3.50;1.00;;;18.10;88.10;;;;;;5083098;28;20022;-72
2022/05/06 14:19:36;;;;;;;2.20;0.50;;;18.00;87.90;;;;;;5082228;28;20067;-71
2022/05/06 14:22:03;;;;;;;2.95;1.33;;;18.00;87.70;;;;;;5085546;28;20035;-73
2022/05/06 14:24:29;;;;;;;8.68;1.38;;;18.10;87.60;;;;;;5080378;28;20393;-72
2022/05/06 14:26:56;;;;;;;6.03;1.30;;;18.00;87.50;;;;;;5076911;28;20456;-75
2022/05/06 14:29:22;;;;;;;7.75;1.95;;;18.00;87.60;;;;;;5084763;28;20024;-68
2022/05/06 14:31:48;;;;;;;13.07;7.90;;;18.00;88.00;;;;;;5081977;28;20509;-70
2022/05/06 14:34:15;;;;;;;5.28;3.10;;;18.00;88.80;;;;;;5083594;28;20493;-77
2022/05/06 14:36:41;;;;;;;4.70;2.78;;;18.00;89.20;;;;;;5083339;28;20031;-69
2022/05/06 14:39:08;;;;;;;6.35;2.15;;;18.00;89.30;;;;;;5080500;28;20016;-71
2022/05/06 14:41:34;;;;;;;4.20;1.48;;;18.00;89.10;;;;;;5080328;28;20031;-74
2022/05/06 14:44:01;;;;;;;1.90;1.40;;;18.00;88.80;;;;;;5083646;28;20020;-68
2022/05/06 14:46:28;;;;;;;9.60;7.10;;;17.90;88.40;;;;;;5078978;28;20058;-68
2022/05/06 14:48:54;;;;;;;17.42;11.88;;;18.00;88.30;;;;;;5079683;28;20042;-71
2022/05/06 14:51:21;;;;;;;12.68;8.27;;;17.90;87.90;;;;;;5078313;28;20073;-79
2022/05/06 14:53:47;;;;;;;7.88;5.10;;;17.90;87.70;;;;;;5080808;28;20114;-76
2022/05/06 14:56:14;;;;;;;5.55;3.15;;;17.90;87.50;;;;;;5083697;28;20086;-74